sensor_id;sensor_type;location;lat;lon;timestamp;P1;durP1;ratioP1;P2;durP2;ratioP2
27313;SDS011;14800;48.174;9.798;2023-11-22T00:00:09;10.45;;;7.18;;
27313;SDS011;14800;48.174;9.798;2023-11-22T00:02:36;8.43;;;6.63;;
27313;SDS011;14800;48.174;9.798;2023-11-22T00:05:02;9.48;;;6.70;;
27313;SDS011;14800;48.174;9.798;2023-11-22T00:07:28;8.35;;;6.80;;
27313;SDS011;14800;48.174;9.798;2023-11-22T00:09:54;9.95;;;7.20;;
27313;SDS011;14800;48.174;9.798;2023-11-22T00:12:20;11.02;;;7.32;;
27313;SDS011;14800;48.174;9.798;2023-11-22T00:14:47;9.70;;;7.03;;
27313;SDS011;14800;48.174;9.798;2023-11-22T00:17:14;11.27;;;7.32;;
27313;SDS011;14800;48.174;9.798;2023-11-22T00:19:42;8.80;;;7.07;;
27313;SDS011;14800;48.174;9.798;2023-11-22T00:22:09;10.45;;;7.25;;
27313;SDS011;14800;48.174;9.798;2023-11-22T00:24:39;9.85;;;7.15;;
27313;SDS011;14800;48.174;9.798;2023-11-22T00:27:06;9.57;;;7.03;;
27313;SDS011;14800;48.174;9.798;2023-11-22T00:29:35;11.45;;;7.68;;
27313;SDS011;14800;48.174;9.798;2023-11-22T00:32:01;9.40;;;7.13;;
27313;SDS011;14800;48.174;9.798;2023-11-22T00:34:26;8.98;;;6.90;;
27313;SDS011;14800;48.174;9.798;2023-11-22T00:36:52;8.70;;;6.38;;
27313;SDS011;14800;48.174;9.798;2023-11-22T00:39:18;9.73;;;7.03;;
27313;SDS011;14800;48.174;9.798;2023-11-22T00:41:44;11.38;;;7.25;;
27313;SDS011;14800;48.174;9.798;2023-11-22T00:44:10;8.52;;;6.35;;
27313;SDS011;14800;48.174;9.798;2023-11-22T00:46:36;8.40;;;6.70;;
27313;SDS011;14800;48.174;9.798;2023-11-22T00:49:05;10.20;;;7.50;;
27313;SDS011;14800;48.174;9.798;2023-11-22T00:51:31;10.30;;;7.05;;
27313;SDS011;14800;48.174;9.798;2023-11-22T00:53:57;9.85;;;7.05;;
27313;SDS011;14800;48.174;9.798;2023-11-22T00:56:24;10.80;;;7.78;;
27313;SDS011;14800;48.174;9.798;2023-11-22T00:58:50;11.18;;;7.53;;
27313;SDS011;14800;48.174;9.798;2023-11-22T01:01:16;12.48;;;8.02;;
27313;SDS011;14800;48.174;9.798;2023-11-22T01:03:43;11.90;;;8.00;;
27313;SDS011;14800;48.174;9.798;2023-11-22T01:06:08;12.70;;;7.72;;
27313;SDS011;14800;48.174;9.798;2023-11-22T01:08:34;10.90;;;7.80;;
27313;SDS011;14800;48.174;9.798;2023-11-22T01:11:00;10.35;;;7.35;;
27313;SDS011;14800;48.174;9.798;2023-11-22T01:13:28;9.88;;;7.10;;
27313;SDS011;14800;48.174;9.798;2023-11-22T01:15:54;9.15;;;6.88;;
27313;SDS011;14800;48.174;9.798;2023-11-22T01:18:20;10.80;;;7.60;;
27313;SDS011;14800;48.174;9.798;2023-11-22T01:20:46;10.07;;;7.65;;
27313;SDS011;14800;48.174;9.798;2023-11-22T01:23:12;12.38;;;7.97;;
27313;SDS011;14800;48.174;9.798;2023-11-22T01:25:37;10.77;;;7.63;;
27313;SDS011;14800;48.174;9.798;2023-11-22T01:28:03;8.82;;;7.35;;
27313;SDS011;14800;48.174;9.798;2023-11-22T01:30:29;10.18;;;7.82;;
27313;SDS011;14800;48.174;9.798;2023-11-22T01:32:54;11.57;;;7.75;;
27313;SDS011;14800;48.174;9.798;2023-11-22T01:35:20;10.00;;;7.15;;
27313;SDS011;14800;48.174;9.798;2023-11-22T01:37:46;9.43;;;7.45;;
27313;SDS011;14800;48.174;9.798;2023-11-22T01:40:12;12.57;;;7.63;;
27313;SDS011;14800;48.174;9.798;2023-11-22T01:42:38;11.00;;;7.22;;
27313;SDS011;14800;48.174;9.798;2023-11-22T01:45:05;11.68;;;7.28;;
27313;SDS011;14800;48.174;9.798;2023-11-22T01:47:32;11.13;;;7.43;;
27313;SDS011;14800;48.174;9.798;2023-11-22T01:49:59;10.70;;;7.43;;
27313;SDS011;14800;48.174;9.798;2023-11-22T01:52:24;9.88;;;7.55;;
27313;SDS011;14800;48.174;9.798;2023-11-22T01:54:51;12.57;;;8.05;;
27313;SDS011;14800;48.174;9.798;2023-11-22T01:57:16;9.95;;;7.05;;
27313;SDS011;14800;48.174;9.798;2023-11-22T01:59:42;13.85;;;7.85;;
27313;SDS011;14800;48.174;9.798;2023-11-22T02:02:10;10.82;;;7.72;;
27313;SDS011;14800;48.174;9.798;2023-11-22T02:04:35;10.25;;;7.35;;
27313;SDS011;14800;48.174;9.798;2023-11-22T02:07:01;12.68;;;8.20;;
27313;SDS011;14800;48.174;9.798;2023-11-22T02:09:27;10.98;;;7.65;;
27313;SDS011;14800;48.174;9.798;2023-11-22T02:11:53;13.82;;;8.10;;
27313;SDS011;14800;48.174;9.798;2023-11-22T02:14:18;10.13;;;6.93;;
27313;SDS011;14800;48.174;9.798;2023-11-22T02:16:44;11.07;;;7.60;;
27313;SDS011;14800;48.174;9.798;2023-11-22T02:19:16;10.57;;;7.78;;
27313;SDS011;14800;48.174;9.798;2023-11-22T02:21:43;11.10;;;7.78;;
27313;SDS011;14800;48.174;9.798;2023-11-22T02:24:09;10.60;;;7.63;;
27313;SDS011;14800;48.174;9.798;2023-11-22T02:26:35;11.10;;;7.95;;
27313;SDS011;14800;48.174;9.798;2023-11-22T02:29:01;11.63;;;7.75;;
27313;SDS011;14800;48.174;9.798;2023-11-22T02:31:29;11.68;;;8.07;;
27313;SDS011;14800;48.174;9.798;2023-11-22T02:33:55;11.88;;;8.18;;
27313;SDS011;14800;48.174;9.798;2023-11-22T02:36:21;10.80;;;7.90;;
27313;SDS011;14800;48.174;9.798;2023-11-22T02:38:47;10.43;;;7.95;;
27313;SDS011;14800;48.174;9.798;2023-11-22T02:41:13;11.57;;;8.30;;
27313;SDS011;14800;48.174;9.798;2023-11-22T02:43:39;9.65;;;7.80;;
27313;SDS011;14800;48.174;9.798;2023-11-22T02:46:06;10.30;;;8.27;;
27313;SDS011;14800;48.174;9.798;2023-11-22T02:48:33;10.27;;;7.85;;
27313;SDS011;14800;48.174;9.798;2023-11-22T02:50:59;12.50;;;8.30;;
27313;SDS011;14800;48.174;9.798;2023-11-22T02:53:24;13.18;;;8.60;;
27313;SDS011;14800;48.174;9.798;2023-11-22T02:55:50;7.15;;;5.88;;
27313;SDS011;14800;48.174;9.798;2023-11-22T02:58:16;5.35;;;3.55;;
27313;SDS011;14800;48.174;9.798;2023-11-22T03:00:42;6.47;;;3.85;;
27313;SDS011;14800;48.174;9.798;2023-11-22T03:03:07;3.85;;;3.53;;
27313;SDS011;14800;48.174;9.798;2023-11-22T03:05:35;4.95;;;4.10;;
27313;SDS011;14800;48.174;9.798;2023-11-22T03:08:05;4.75;;;4.25;;
27313;SDS011;14800;48.174;9.798;2023-11-22T03:10:32;4.70;;;4.05;;
27313;SDS011;14800;48.174;9.798;2023-11-22T03:12:58;4.50;;;3.78;;
27313;SDS011;14800;48.174;9.798;2023-11-22T03:15:24;4.93;;;4.15;;
27313;SDS011;14800;48.174;9.798;2023-11-22T03:17:49;5.25;;;3.80;;
27313;SDS011;14800;48.174;9.798;2023-11-22T03:20:15;4.90;;;3.60;;
27313;SDS011;14800;48.174;9.798;2023-11-22T03:22:41;4.25;;;3.83;;
27313;SDS011;14800;48.174;9.798;2023-11-22T03:25:09;4.15;;;3.60;;
27313;SDS011;14800;48.174;9.798;2023-11-22T03:27:36;4.28;;;3.63;;
27313;SDS011;14800;48.174;9.798;2023-11-22T03:30:02;6.43;;;3.83;;
27313;SDS011;14800;48.174;9.798;2023-11-22T03:32:29;5.65;;;4.57;;
27313;SDS011;14800;48.174;9.798;2023-11-22T03:34:55;5.53;;;4.50;;
27313;SDS011;14800;48.174;9.798;2023-11-22T03:37:22;5.07;;;4.30;;
27313;SDS011;14800;48.174;9.798;2023-11-22T03:39:48;3.42;;;3.00;;
27313;SDS011;14800;48.174;9.798;2023-11-22T03:42:16;2.10;;;1.60;;
27313;SDS011;14800;48.174;9.798;2023-11-22T03:44:42;1.30;;;1.20;;
27313;SDS011;14800;48.174;9.798;2023-11-22T03:47:10;0.90;;;0.90;;
27313;SDS011;14800;48.174;9.798;2023-11-22T03:49:38;0.80;;;0.80;;
27313;SDS011;14800;48.174;9.798;2023-11-22T03:52:04;2.47;;;1.08;;
27313;SDS011;14800;48.174;9.798;2023-11-22T03:54:30;0.88;;;0.88;;
27313;SDS011;14800;48.174;9.798;2023-11-22T03:56:57;1.10;;;1.00;;
27313;SDS011;14800;48.174;9.798;2023-11-22T03:59:27;2.70;;;1.08;;
27313;SDS011;14800;48.174;9.798;2023-11-22T04:01:52;0.88;;;0.88;;
27313;SDS011;14800;48.174;9.798;2023-11-22T04:04:19;1.92;;;1.27;;
27313;SDS011;14800;48.174;9.798;2023-11-22T04:06:45;0.90;;;0.90;;
27313;SDS011;14800;48.174;9.798;2023-11-22T04:09:10;1.40;;;1.15;;
27313;SDS011;14800;48.174;9.798;2023-11-22T04:11:39;1.27;;;1.17;;
27313;SDS011;14800;48.174;9.798;2023-11-22T04:14:05;1.40;;;1.30;;
27313;SDS011;14800;48.174;9.798;2023-11-22T04:16:31;1.95;;;1.52;;
27313;SDS011;14800;48.174;9.798;2023-11-22T04:18:57;1.50;;;1.40;;
27313;SDS011;14800;48.174;9.798;2023-11-22T04:21:22;1.50;;;1.40;;
27313;SDS011;14800;48.174;9.798;2023-11-22T04:23:49;1.60;;;1.45;;
27313;SDS011;14800;48.174;9.798;2023-11-22T04:26:15;8.50;;;3.30;;
27313;SDS011;14800;48.174;9.798;2023-11-22T04:28:41;5.47;;;2.90;;
27313;SDS011;14800;48.174;9.798;2023-11-22T04:31:07;4.05;;;2.47;;
27313;SDS011;14800;48.174;9.798;2023-11-22T04:33:34;2.92;;;2.35;;
27313;SDS011;14800;48.174;9.798;2023-11-22T04:35:59;2.40;;;2.20;;
27313;SDS011;14800;48.174;9.798;2023-11-22T04:38:25;2.55;;;2.35;;
27313;SDS011;14800;48.174;9.798;2023-11-22T04:40:51;2.70;;;2.50;;
27313;SDS011;14800;48.174;9.798;2023-11-22T04:43:17;2.90;;;2.70;;
27313;SDS011;14800;48.174;9.798;2023-11-22T04:45:43;4.35;;;2.88;;
27313;SDS011;14800;48.174;9.798;2023-11-22T04:48:08;3.15;;;2.78;;
27313;SDS011;14800;48.174;9.798;2023-11-22T04:50:34;4.47;;;3.00;;
27313;SDS011;14800;48.174;9.798;2023-11-22T04:53:00;4.70;;;3.40;;
27313;SDS011;14800;48.174;9.798;2023-11-22T04:55:26;3.70;;;3.30;;
27313;SDS011;14800;48.174;9.798;2023-11-22T04:57:53;3.47;;;3.17;;
27313;SDS011;14800;48.174;9.798;2023-11-22T05:00:19;3.58;;;3.28;;
27313;SDS011;14800;48.174;9.798;2023-11-22T05:02:47;3.75;;;3.35;;
27313;SDS011;14800;48.174;9.798;2023-11-22T05:05:13;3.55;;;3.05;;
27313;SDS011;14800;48.174;9.798;2023-11-22T05:07:39;4.45;;;3.53;;
27313;SDS011;14800;48.174;9.798;2023-11-22T05:10:04;4.22;;;3.80;;
27313;SDS011;14800;48.174;9.798;2023-11-22T05:12:33;3.80;;;3.40;;
27313;SDS011;14800;48.174;9.798;2023-11-22T05:14:58;4.40;;;3.88;;
27313;SDS011;14800;48.174;9.798;2023-11-22T05:17:24;6.25;;;3.92;;
27313;SDS011;14800;48.174;9.798;2023-11-22T05:19:50;4.90;;;3.67;;
27313;SDS011;14800;48.174;9.798;2023-11-22T05:22:16;5.00;;;3.92;;
27313;SDS011;14800;48.174;9.798;2023-11-22T05:24:42;5.30;;;4.10;;
27313;SDS011;14800;48.174;9.798;2023-11-22T05:27:07;5.88;;;4.55;;
27313;SDS011;14800;48.174;9.798;2023-11-22T05:29:33;4.60;;;4.03;;
27313;SDS011;14800;48.174;9.798;2023-11-22T05:32:00;4.88;;;4.32;;
27313;SDS011;14800;48.174;9.798;2023-11-22T05:34:27;4.80;;;4.03;;
27313;SDS011;14800;48.174;9.798;2023-11-22T05:36:53;4.53;;;3.90;;
27313;SDS011;14800;48.174;9.798;2023-11-22T05:39:19;5.53;;;4.32;;
27313;SDS011;14800;48.174;9.798;2023-11-22T05:41:47;4.40;;;4.00;;
27313;SDS011;14800;48.174;9.798;2023-11-22T05:44:13;5.00;;;4.18;;
27313;SDS011;14800;48.174;9.798;2023-11-22T05:46:39;7.10;;;4.85;;
27313;SDS011;14800;48.174;9.798;2023-11-22T05:49:04;7.78;;;6.25;;
27313;SDS011;14800;48.174;9.798;2023-11-22T05:51:30;9.82;;;6.85;;
27313;SDS011;14800;48.174;9.798;2023-11-22T05:53:56;10.00;;;7.03;;
27313;SDS011;14800;48.174;9.798;2023-11-22T05:56:22;8.23;;;6.68;;
27313;SDS011;14800;48.174;9.798;2023-11-22T05:58:47;8.73;;;6.00;;
27313;SDS011;14800;48.174;9.798;2023-11-22T06:01:13;6.05;;;5.28;;
27313;SDS011;14800;48.174;9.798;2023-11-22T06:03:39;6.68;;;5.45;;
27313;SDS011;14800;48.174;9.798;2023-11-22T06:06:05;9.18;;;5.95;;
27313;SDS011;14800;48.174;9.798;2023-11-22T06:08:31;7.82;;;6.03;;
27313;SDS011;14800;48.174;9.798;2023-11-22T06:10:57;7.70;;;6.05;;
27313;SDS011;14800;48.174;9.798;2023-11-22T06:13:24;8.38;;;6.53;;
27313;SDS011;14800;48.174;9.798;2023-11-22T06:15:50;10.43;;;6.70;;
27313;SDS011;14800;48.174;9.798;2023-11-22T06:18:15;9.25;;;6.85;;
27313;SDS011;14800;48.174;9.798;2023-11-22T06:20:41;8.93;;;6.43;;
27313;SDS011;14800;48.174;9.798;2023-11-22T06:23:07;9.90;;;7.20;;
27313;SDS011;14800;48.174;9.798;2023-11-22T06:25:33;8.73;;;6.65;;
27313;SDS011;14800;48.174;9.798;2023-11-22T06:28:01;8.23;;;6.45;;
27313;SDS011;14800;48.174;9.798;2023-11-22T06:30:27;9.90;;;6.75;;
27313;SDS011;14800;48.174;9.798;2023-11-22T06:32:52;9.07;;;6.55;;
27313;SDS011;14800;48.174;9.798;2023-11-22T06:35:18;9.55;;;6.45;;
27313;SDS011;14800;48.174;9.798;2023-11-22T06:37:44;8.27;;;6.22;;
27313;SDS011;14800;48.174;9.798;2023-11-22T06:40:10;10.73;;;7.18;;
27313;SDS011;14800;48.174;9.798;2023-11-22T06:42:42;8.82;;;6.60;;
27313;SDS011;14800;48.174;9.798;2023-11-22T06:45:08;10.25;;;6.75;;
27313;SDS011;14800;48.174;9.798;2023-11-22T06:47:43;11.95;;;7.07;;
27313;SDS011;14800;48.174;9.798;2023-11-22T06:50:09;10.95;;;6.95;;
27313;SDS011;14800;48.174;9.798;2023-11-22T06:52:36;12.07;;;7.90;;
27313;SDS011;14800;48.174;9.798;2023-11-22T06:55:03;12.48;;;7.72;;
27313;SDS011;14800;48.174;9.798;2023-11-22T06:57:29;11.27;;;8.05;;
27313;SDS011;14800;48.174;9.798;2023-11-22T06:59:58;13.75;;;8.45;;
27313;SDS011;14800;48.174;9.798;2023-11-22T07:02:23;11.77;;;8.65;;
27313;SDS011;14800;48.174;9.798;2023-11-22T07:04:49;11.18;;;8.32;;
27313;SDS011;14800;48.174;9.798;2023-11-22T07:07:15;13.05;;;8.75;;
27313;SDS011;14800;48.174;9.798;2023-11-22T07:09:43;12.23;;;7.30;;
27313;SDS011;14800;48.174;9.798;2023-11-22T07:12:09;11.27;;;7.25;;
27313;SDS011;14800;48.174;9.798;2023-11-22T07:14:35;10.73;;;7.35;;
27313;SDS011;14800;48.174;9.798;2023-11-22T07:17:01;12.10;;;6.93;;
27313;SDS011;14800;48.174;9.798;2023-11-22T07:19:27;10.77;;;7.22;;
27313;SDS011;14800;48.174;9.798;2023-11-22T07:21:53;10.80;;;7.10;;
27313;SDS011;14800;48.174;9.798;2023-11-22T07:24:19;9.88;;;7.00;;
27313;SDS011;14800;48.174;9.798;2023-11-22T07:26:44;9.82;;;7.13;;
27313;SDS011;14800;48.174;9.798;2023-11-22T07:29:10;9.98;;;6.80;;
27313;SDS011;14800;48.174;9.798;2023-11-22T07:31:37;8.93;;;6.38;;
27313;SDS011;14800;48.174;9.798;2023-11-22T07:34:03;8.70;;;6.40;;
27313;SDS011;14800;48.174;9.798;2023-11-22T07:36:29;8.13;;;6.18;;
27313;SDS011;14800;48.174;9.798;2023-11-22T07:38:55;9.77;;;6.80;;
27313;SDS011;14800;48.174;9.798;2023-11-22T07:41:21;9.52;;;5.80;;
27313;SDS011;14800;48.174;9.798;2023-11-22T07:43:47;8.27;;;5.85;;
27313;SDS011;14800;48.174;9.798;2023-11-22T07:46:13;11.70;;;5.90;;
27313;SDS011;14800;48.174;9.798;2023-11-22T07:48:39;10.63;;;6.07;;
27313;SDS011;14800;48.174;9.798;2023-11-22T07:51:06;7.88;;;5.80;;
27313;SDS011;14800;48.174;9.798;2023-11-22T07:53:32;11.68;;;6.03;;
27313;SDS011;14800;48.174;9.798;2023-11-22T07:56:01;11.55;;;6.28;;
27313;SDS011;14800;48.174;9.798;2023-11-22T07:58:30;7.05;;;5.50;;
27313;SDS011;14800;48.174;9.798;2023-11-22T08:00:56;7.25;;;5.80;;
27313;SDS011;14800;48.174;9.798;2023-11-22T08:03:23;7.90;;;6.00;;
27313;SDS011;14800;48.174;9.798;2023-11-22T08:05:50;9.63;;;6.30;;
27313;SDS011;14800;48.174;9.798;2023-11-22T08:08:18;7.45;;;5.90;;
27313;SDS011;14800;48.174;9.798;2023-11-22T08:10:45;9.65;;;5.80;;
27313;SDS011;14800;48.174;9.798;2023-11-22T08:13:12;9.07;;;6.03;;
27313;SDS011;14800;48.174;9.798;2023-11-22T08:15:38;6.75;;;5.60;;
27313;SDS011;14800;48.174;9.798;2023-11-22T08:18:04;7.32;;;5.38;;
27313;SDS011;14800;48.174;9.798;2023-11-22T08:20:30;6.00;;;4.82;;
27313;SDS011;14800;48.174;9.798;2023-11-22T08:22:56;6.85;;;5.40;;
27313;SDS011;14800;48.174;9.798;2023-11-22T08:25:22;6.22;;;4.97;;
27313;SDS011;14800;48.174;9.798;2023-11-22T08:27:48;6.75;;;4.40;;
27313;SDS011;14800;48.174;9.798;2023-11-22T08:30:14;4.28;;;3.85;;
27313;SDS011;14800;48.174;9.798;2023-11-22T08:32:44;5.93;;;4.18;;
27313;SDS011;14800;48.174;9.798;2023-11-22T08:35:13;3.70;;;3.35;;
27313;SDS011;14800;48.174;9.798;2023-11-22T08:37:40;4.70;;;3.58;;
27313;SDS011;14800;48.174;9.798;2023-11-22T08:40:09;4.25;;;3.38;;
27313;SDS011;14800;48.174;9.798;2023-11-22T08:42:43;5.40;;;3.55;;
27313;SDS011;14800;48.174;9.798;2023-11-22T08:45:09;3.92;;;3.25;;
27313;SDS011;14800;48.174;9.798;2023-11-22T08:47:36;4.43;;;3.72;;
27313;SDS011;14800;48.174;9.798;2023-11-22T08:50:04;5.75;;;3.97;;
27313;SDS011;14800;48.174;9.798;2023-11-22T08:52:31;3.53;;;3.20;;
27313;SDS011;14800;48.174;9.798;2023-11-22T08:54:57;4.10;;;3.30;;
27313;SDS011;14800;48.174;9.798;2023-11-22T08:57:22;3.72;;;2.97;;
27313;SDS011;14800;48.174;9.798;2023-11-22T08:59:48;4.18;;;3.00;;
27313;SDS011;14800;48.174;9.798;2023-11-22T09:02:14;3.97;;;3.20;;
27313;SDS011;14800;48.174;9.798;2023-11-22T09:04:40;4.80;;;3.63;;
27313;SDS011;14800;48.174;9.798;2023-11-22T09:07:06;5.10;;;4.10;;
27313;SDS011;14800;48.174;9.798;2023-11-22T09:09:32;4.55;;;3.80;;
27313;SDS011;14800;48.174;9.798;2023-11-22T09:11:59;5.03;;;4.03;;
27313;SDS011;14800;48.174;9.798;2023-11-22T09:14:26;5.20;;;3.90;;
27313;SDS011;14800;48.174;9.798;2023-11-22T09:16:51;5.15;;;3.75;;
27313;SDS011;14800;48.174;9.798;2023-11-22T09:19:23;4.03;;;3.45;;
27313;SDS011;14800;48.174;9.798;2023-11-22T09:21:50;5.47;;;3.95;;
27313;SDS011;14800;48.174;9.798;2023-11-22T09:24:16;4.10;;;3.20;;
27313;SDS011;14800;48.174;9.798;2023-11-22T09:26:42;4.20;;;3.60;;
27313;SDS011;14800;48.174;9.798;2023-11-22T09:29:08;4.47;;;3.75;;
27313;SDS011;14800;48.174;9.798;2023-11-22T09:31:38;3.90;;;3.47;;
27313;SDS011;14800;48.174;9.798;2023-11-22T09:34:04;5.50;;;3.60;;
27313;SDS011;14800;48.174;9.798;2023-11-22T09:36:30;5.10;;;3.78;;
27313;SDS011;14800;48.174;9.798;2023-11-22T09:38:58;4.32;;;3.67;;
27313;SDS011;14800;48.174;9.798;2023-11-22T09:41:24;4.53;;;3.78;;
27313;SDS011;14800;48.174;9.798;2023-11-22T09:43:52;5.53;;;4.00;;
27313;SDS011;14800;48.174;9.798;2023-11-22T09:46:18;5.93;;;4.00;;
27313;SDS011;14800;48.174;9.798;2023-11-22T09:48:47;4.20;;;3.80;;
27313;SDS011;14800;48.174;9.798;2023-11-22T09:53:58;3.95;;;3.55;;
27313;SDS011;14800;48.174;9.798;2023-11-22T09:56:30;3.90;;;3.47;;
27313;SDS011;14800;48.174;9.798;2023-11-22T09:58:58;4.35;;;3.60;;
27313;SDS011;14800;48.174;9.798;2023-11-22T10:01:26;4.50;;;3.92;;
27313;SDS011;14800;48.174;9.798;2023-11-22T10:04:02;6.65;;;3.53;;
27313;SDS011;14800;48.174;9.798;2023-11-22T10:06:30;4.15;;;3.70;;
27313;SDS011;14800;48.174;9.798;2023-11-22T10:08:59;4.10;;;3.70;;
27313;SDS011;14800;48.174;9.798;2023-11-22T10:11:26;5.13;;;4.20;;
27313;SDS011;14800;48.174;9.798;2023-11-22T10:13:53;5.82;;;4.75;;
27313;SDS011;14800;48.174;9.798;2023-11-22T10:16:19;6.05;;;4.57;;
27313;SDS011;14800;48.174;9.798;2023-11-22T10:18:46;6.65;;;4.60;;
27313;SDS011;14800;48.174;9.798;2023-11-22T10:21:19;9.65;;;5.28;;
27313;SDS011;14800;48.174;9.798;2023-11-22T10:23:54;6.47;;;5.13;;
27313;SDS011;14800;48.174;9.798;2023-11-22T10:26:21;5.78;;;5.05;;
27313;SDS011;14800;48.174;9.798;2023-11-22T10:28:50;5.70;;;4.65;;
27313;SDS011;14800;48.174;9.798;2023-11-22T10:31:17;6.72;;;5.18;;
27313;SDS011;14800;48.174;9.798;2023-11-22T10:33:44;8.07;;;5.18;;
27313;SDS011;14800;48.174;9.798;2023-11-22T10:36:10;5.63;;;4.85;;
27313;SDS011;14800;48.174;9.798;2023-11-22T10:38:37;6.00;;;4.75;;
27313;SDS011;14800;48.174;9.798;2023-11-22T10:41:03;7.13;;;4.85;;
27313;SDS011;14800;48.174;9.798;2023-11-22T10:43:30;5.28;;;4.50;;
27313;SDS011;14800;48.174;9.798;2023-11-22T10:45:59;7.32;;;5.35;;
27313;SDS011;14800;48.174;9.798;2023-11-22T10:48:27;11.60;;;6.03;;
27313;SDS011;14800;48.174;9.798;2023-11-22T10:50:54;7.55;;;5.50;;
27313;SDS011;14800;48.174;9.798;2023-11-22T10:53:22;6.68;;;5.18;;
27313;SDS011;14800;48.174;9.798;2023-11-22T10:55:59;6.88;;;5.18;;
27313;SDS011;14800;48.174;9.798;2023-11-22T10:58:37;6.88;;;5.20;;
27313;SDS011;14800;48.174;9.798;2023-11-22T11:01:13;7.03;;;5.13;;
27313;SDS011;14800;48.174;9.798;2023-11-22T11:03:52;7.53;;;5.35;;
27313;SDS011;14800;48.174;9.798;2023-11-22T11:06:23;6.72;;;5.25;;
27313;SDS011;14800;48.174;9.798;2023-11-22T11:08:59;6.90;;;5.47;;
27313;SDS011;14800;48.174;9.798;2023-11-22T11:11:34;7.63;;;5.72;;
27313;SDS011;14800;48.174;9.798;2023-11-22T11:14:04;6.95;;;5.43;;
27313;SDS011;14800;48.174;9.798;2023-11-22T11:16:33;8.45;;;5.53;;
27313;SDS011;14800;48.174;9.798;2023-11-22T11:19:02;6.53;;;5.28;;
27313;SDS011;14800;48.174;9.798;2023-11-22T11:21:32;6.05;;;5.40;;
27313;SDS011;14800;48.174;9.798;2023-11-22T11:23:58;6.45;;;5.00;;
27313;SDS011;14800;48.174;9.798;2023-11-22T11:26:28;6.18;;;4.78;;
27313;SDS011;14800;48.174;9.798;2023-11-22T11:28:56;10.77;;;4.97;;
27313;SDS011;14800;48.174;9.798;2023-11-22T11:31:22;7.63;;;5.03;;
27313;SDS011;14800;48.174;9.798;2023-11-22T11:36:23;6.00;;;4.78;;
27313;SDS011;14800;48.174;9.798;2023-11-22T11:38:58;7.53;;;4.75;;
27313;SDS011;14800;48.174;9.798;2023-11-22T11:41:29;6.20;;;5.03;;
27313;SDS011;14800;48.174;9.798;2023-11-22T11:43:58;6.28;;;4.68;;
27313;SDS011;14800;48.174;9.798;2023-11-22T11:46:26;7.35;;;5.07;;
27313;SDS011;14800;48.174;9.798;2023-11-22T11:48:54;6.97;;;5.22;;
27313;SDS011;14800;48.174;9.798;2023-11-22T11:51:24;7.35;;;5.05;;
27313;SDS011;14800;48.174;9.798;2023-11-22T11:53:51;9.88;;;5.63;;
27313;SDS011;14800;48.174;9.798;2023-11-22T11:56:17;7.38;;;5.60;;
27313;SDS011;14800;48.174;9.798;2023-11-22T11:58:43;6.60;;;5.40;;
27313;SDS011;14800;48.174;9.798;2023-11-22T12:01:11;6.00;;;5.13;;
27313;SDS011;14800;48.174;9.798;2023-11-22T12:03:37;8.93;;;5.30;;
27313;SDS011;14800;48.174;9.798;2023-11-22T12:06:06;6.70;;;5.45;;
27313;SDS011;14800;48.174;9.798;2023-11-22T12:08:32;6.30;;;5.13;;
27313;SDS011;14800;48.174;9.798;2023-11-22T12:11:01;8.55;;;5.03;;
27313;SDS011;14800;48.174;9.798;2023-11-22T12:13:33;7.50;;;5.30;;
27313;SDS011;14800;48.174;9.798;2023-11-22T12:16:00;5.43;;;4.72;;
27313;SDS011;14800;48.174;9.798;2023-11-22T12:18:38;4.88;;;4.38;;
27313;SDS011;14800;48.174;9.798;2023-11-22T12:21:05;5.20;;;4.68;;
27313;SDS011;14800;48.174;9.798;2023-11-22T12:23:32;6.40;;;4.82;;
27313;SDS011;14800;48.174;9.798;2023-11-22T12:25:57;6.25;;;5.13;;
27313;SDS011;14800;48.174;9.798;2023-11-22T12:28:27;7.82;;;5.07;;
27313;SDS011;14800;48.174;9.798;2023-11-22T12:30:54;5.60;;;5.00;;
27313;SDS011;14800;48.174;9.798;2023-11-22T12:33:20;6.47;;;5.60;;
27313;SDS011;14800;48.174;9.798;2023-11-22T12:35:46;6.05;;;5.25;;
27313;SDS011;14800;48.174;9.798;2023-11-22T12:38:13;5.45;;;4.95;;
27313;SDS011;14800;48.174;9.798;2023-11-22T12:40:43;6.65;;;5.35;;
27313;SDS011;14800;48.174;9.798;2023-11-22T12:43:12;8.50;;;5.60;;
27313;SDS011;14800;48.174;9.798;2023-11-22T12:45:39;6.55;;;5.47;;
27313;SDS011;14800;48.174;9.798;2023-11-22T12:48:21;7.85;;;5.43;;
27313;SDS011;14800;48.174;9.798;2023-11-22T12:50:51;8.52;;;5.07;;
27313;SDS011;14800;48.174;9.798;2023-11-22T12:53:17;6.38;;;5.25;;
27313;SDS011;14800;48.174;9.798;2023-11-22T12:55:46;7.28;;;6.00;;
27313;SDS011;14800;48.174;9.798;2023-11-22T12:58:14;8.38;;;6.35;;
27313;SDS011;14800;48.174;9.798;2023-11-22T13:00:44;7.78;;;5.93;;
27313;SDS011;14800;48.174;9.798;2023-11-22T13:03:11;7.63;;;5.90;;
27313;SDS011;14800;48.174;9.798;2023-11-22T13:05:38;6.70;;;5.75;;
27313;SDS011;14800;48.174;9.798;2023-11-22T13:08:04;6.30;;;5.47;;
27313;SDS011;14800;48.174;9.798;2023-11-22T13:10:30;7.20;;;5.85;;
27313;SDS011;14800;48.174;9.798;2023-11-22T13:12:56;6.68;;;5.63;;
27313;SDS011;14800;48.174;9.798;2023-11-22T13:15:23;7.75;;;5.75;;
27313;SDS011;14800;48.174;9.798;2023-11-22T13:17:50;7.90;;;5.93;;
27313;SDS011;14800;48.174;9.798;2023-11-22T13:20:23;8.27;;;6.22;;
27313;SDS011;14800;48.174;9.798;2023-11-22T13:22:51;7.28;;;5.82;;
27313;SDS011;14800;48.174;9.798;2023-11-22T13:25:22;7.30;;;5.93;;
27313;SDS011;14800;48.174;9.798;2023-11-22T13:27:49;6.85;;;5.57;;
27313;SDS011;14800;48.174;9.798;2023-11-22T13:30:15;7.30;;;5.85;;
27313;SDS011;14800;48.174;9.798;2023-11-22T13:32:44;6.90;;;5.38;;
27313;SDS011;14800;48.174;9.798;2023-11-22T13:35:10;9.25;;;5.95;;
27313;SDS011;14800;48.174;9.798;2023-11-22T13:37:46;7.43;;;5.88;;
27313;SDS011;14800;48.174;9.798;2023-11-22T13:40:13;8.27;;;6.05;;
27313;SDS011;14800;48.174;9.798;2023-11-22T13:42:41;7.35;;;5.43;;
27313;SDS011;14800;48.174;9.798;2023-11-22T13:45:09;7.43;;;5.88;;
27313;SDS011;14800;48.174;9.798;2023-11-22T13:47:45;7.03;;;5.72;;
27313;SDS011;14800;48.174;9.798;2023-11-22T13:50:12;9.20;;;5.80;;
27313;SDS011;14800;48.174;9.798;2023-11-22T13:52:43;8.35;;;6.00;;
27313;SDS011;14800;48.174;9.798;2023-11-22T13:55:10;7.57;;;5.65;;
27313;SDS011;14800;48.174;9.798;2023-11-22T13:57:37;7.93;;;5.38;;
27313;SDS011;14800;48.174;9.798;2023-11-22T14:00:08;9.80;;;6.20;;
27313;SDS011;14800;48.174;9.798;2023-11-22T14:02:37;8.60;;;5.50;;
27313;SDS011;14800;48.174;9.798;2023-11-22T14:05:03;7.25;;;5.38;;
27313;SDS011;14800;48.174;9.798;2023-11-22T14:07:33;9.10;;;5.93;;
27313;SDS011;14800;48.174;9.798;2023-11-22T14:10:02;8.23;;;5.82;;
27313;SDS011;14800;48.174;9.798;2023-11-22T14:12:29;8.02;;;5.32;;
27313;SDS011;14800;48.174;9.798;2023-11-22T14:14:56;9.27;;;5.82;;
27313;SDS011;14800;48.174;9.798;2023-11-22T14:17:22;8.98;;;6.18;;
27313;SDS011;14800;48.174;9.798;2023-11-22T14:19:49;10.65;;;6.60;;
27313;SDS011;14800;48.174;9.798;2023-11-22T14:22:15;9.50;;;6.38;;
27313;SDS011;14800;48.174;9.798;2023-11-22T14:24:42;8.95;;;6.78;;
27313;SDS011;14800;48.174;9.798;2023-11-22T14:27:10;9.93;;;6.95;;
27313;SDS011;14800;48.174;9.798;2023-11-22T14:29:37;11.32;;;7.60;;
27313;SDS011;14800;48.174;9.798;2023-11-22T14:32:03;10.35;;;7.25;;
27313;SDS011;14800;48.174;9.798;2023-11-22T14:34:29;9.13;;;7.10;;
27313;SDS011;14800;48.174;9.798;2023-11-22T14:36:54;10.20;;;6.95;;
27313;SDS011;14800;48.174;9.798;2023-11-22T14:39:20;9.07;;;6.90;;
27313;SDS011;14800;48.174;9.798;2023-11-22T14:41:46;11.57;;;7.28;;
27313;SDS011;14800;48.174;9.798;2023-11-22T14:44:11;8.77;;;6.45;;
27313;SDS011;14800;48.174;9.798;2023-11-22T14:46:39;10.38;;;7.15;;
27313;SDS011;14800;48.174;9.798;2023-11-22T14:49:04;7.70;;;5.88;;